createdAt,value
2019-05-13T00:00:26.155Z,52.94
2019-05-13T00:02:56.475Z,53.00
2019-05-13T00:05:27.855Z,53.06
2019-05-13T00:07:58.417Z,53.11
2019-05-13T00:10:29.198Z,53.16
2019-05-13T00:13:00.358Z,53.22
2019-05-13T00:15:30.569Z,53.28
2019-05-13T00:18:00.821Z,53.34
2019-05-13T00:20:33.523Z,53.39
2019-05-13T00:23:04.105Z,53.45
2019-05-13T00:25:35.156Z,53.49
2019-05-13T00:28:06.426Z,53.56
2019-05-13T00:30:36.647Z,53.62
2019-05-13T00:33:07.245Z,53.66
2019-05-13T00:35:37.892Z,53.71
2019-05-13T00:38:08.536Z,53.75
2019-05-13T00:40:39.340Z,53.80
2019-05-13T00:43:09.606Z,53.85
2019-05-13T00:45:40.177Z,53.91
2019-05-13T00:48:10.838Z,53.95
2019-05-13T00:50:44.025Z,53.99
2019-05-13T00:53:14.006Z,54.05
2019-05-13T00:55:45.825Z,54.09
2019-05-13T00:58:16.515Z,54.13
2019-05-13T01:00:47.145Z,54.18
2019-05-13T01:03:17.458Z,54.23
2019-05-13T01:05:47.738Z,54.27
2019-05-13T01:08:17.940Z,54.31
2019-05-13T01:10:48.163Z,54.35
2019-05-13T01:13:18.378Z,54.40
2019-05-13T01:15:48.609Z,54.45
2019-05-13T01:18:19.233Z,54.49
2019-05-13T01:20:49.562Z,54.53
2019-05-13T01:23:19.795Z,54.58
2019-05-13T01:25:50.069Z,54.62
2019-05-13T01:28:20.340Z,54.66
2019-05-13T01:30:50.600Z,54.69
2019-05-13T01:33:20.816Z,54.74
2019-05-13T01:35:53.608Z,54.79
2019-05-13T01:38:24.046Z,54.81
2019-05-13T01:40:55.052Z,54.86
2019-05-13T01:43:25.706Z,54.92
2019-05-13T01:45:55.988Z,54.96
2019-05-13T01:48:26.549Z,55.01
2019-05-13T01:50:56.824Z,55.04
2019-05-13T01:53:27.058Z,55.09
2019-05-13T01:55:57.275Z,55.13
2019-05-13T01:58:27.482Z,55.16
2019-05-13T02:00:57.693Z,55.20
2019-05-13T02:03:27.929Z,55.22
2019-05-13T02:05:58.164Z,55.25
2019-05-13T02:08:28.428Z,55.29
2019-05-13T02:10:58.711Z,55.32
2019-05-13T02:13:28.942Z,55.36
2019-05-13T02:15:59.227Z,55.39
2019-05-13T02:18:29.475Z,55.41
2019-05-13T02:20:59.710Z,55.44
2019-05-13T02:23:29.926Z,55.47
2019-05-13T02:26:00.154Z,55.49
2019-05-13T02:28:30.351Z,55.52
2019-05-13T02:31:00.585Z,55.55
2019-05-13T02:33:33.872Z,55.57
2019-05-13T02:36:03.485Z,55.58
2019-05-13T02:38:35.671Z,55.62
2019-05-13T02:41:07.597Z,55.64
2019-05-13T02:43:41.354Z,55.69
2019-05-13T02:46:12.914Z,55.71
2019-05-13T02:48:42.674Z,55.73
2019-05-13T02:51:12.987Z,55.77
2019-05-13T02:53:43.823Z,55.78
2019-05-13T02:56:14.469Z,55.82
2019-05-13T02:58:46.623Z,55.87
2019-05-13T03:01:16.901Z,55.89
2019-05-13T03:03:47.153Z,55.94
2019-05-13T03:06:17.506Z,55.99
2019-05-13T03:08:50.193Z,56.01
2019-05-13T03:11:22.797Z,56.03
2019-05-13T03:13:52.927Z,56.07
2019-05-13T03:16:28.427Z,56.10
2019-05-13T03:18:59.074Z,56.11
2019-05-13T03:21:32.417Z,56.13
2019-05-13T03:24:03.459Z,56.17
2019-05-13T03:26:34.009Z,56.22
2019-05-13T03:29:06.544Z,56.26
2019-05-13T03:31:36.797Z,56.28
2019-05-13T03:34:07.794Z,56.31
2019-05-13T03:36:45.531Z,56.35
2019-05-13T03:39:16.214Z,56.37
2019-05-13T03:41:52.871Z,56.40
2019-05-13T03:44:24.018Z,56.42
2019-05-13T03:46:58.026Z,56.44
2019-05-13T03:49:32.632Z,56.48
2019-05-13T03:52:03.648Z,56.51
2019-05-13T03:54:35.359Z,56.55
2019-05-13T03:57:07.001Z,56.58
2019-05-13T03:59:37.748Z,56.59
2019-05-13T04:02:08.075Z,56.65
2019-05-13T04:04:38.335Z,56.68
2019-05-13T04:07:08.646Z,56.74
2019-05-13T04:09:42.162Z,56.75
2019-05-13T04:12:13.373Z,56.81
2019-05-13T04:14:43.905Z,56.84
2019-05-13T04:17:14.246Z,56.88
2019-05-13T04:19:44.457Z,56.94
2019-05-13T04:22:14.785Z,56.99
2019-05-13T04:24:45.070Z,57.03
2019-05-13T04:27:15.356Z,57.07
2019-05-13T04:29:46.643Z,57.14
2019-05-13T04:32:17.849Z,57.20
2019-05-13T04:34:49.122Z,57.24
2019-05-13T04:37:22.253Z,57.28
2019-05-13T04:39:56.095Z,57.32
2019-05-13T04:42:24.120Z,57.39
2019-05-13T04:44:56.281Z,57.43
2019-05-13T04:47:28.546Z,57.50
2019-05-13T04:50:02.947Z,57.50
2019-05-13T04:52:33.139Z,57.54
2019-05-13T04:55:05.487Z,57.58
2019-05-13T04:57:36.783Z,57.60
2019-05-13T05:00:08.135Z,57.62
2019-05-13T05:03:05.921Z,57.65
2019-05-13T05:05:55.635Z,57.66
2019-05-13T05:08:37.679Z,57.71
2019-05-13T05:11:42.633Z,57.74
2019-05-13T05:14:35.704Z,57.77
2019-05-13T05:17:36.111Z,57.78
2019-05-13T05:20:12.330Z,57.84
2019-05-13T05:22:51.941Z,57.86
2019-05-13T05:25:41.785Z,57.89
2019-05-13T05:28:44.095Z,57.91
2019-05-13T05:31:17.370Z,57.94
2019-05-13T05:34:25.911Z,57.99
2019-05-13T05:37:02.020Z,58.01
2019-05-13T05:39:32.582Z,58.05
2019-05-13T05:42:04.115Z,58.09
2019-05-13T05:44:35.136Z,58.13
2019-05-13T05:47:05.810Z,58.15
2019-05-13T05:49:37.896Z,58.18
2019-05-13T05:52:12.265Z,58.21
2019-05-13T05:54:42.695Z,58.22
2019-05-13T05:57:13.341Z,58.25
2019-05-13T05:59:44.528Z,58.25
2019-05-13T06:02:17.604Z,58.24
2019-05-13T06:04:51.981Z,58.26
2019-05-13T06:07:23.865Z,58.27
2019-05-13T06:09:54.154Z,58.28
2019-05-13T06:12:25.809Z,58.28
2019-05-13T06:14:57.122Z,58.27
2019-05-13T06:17:27.928Z,58.28
2019-05-13T06:20:03.243Z,58.28
2019-05-13T06:22:32.879Z,58.28
2019-05-13T06:25:04.582Z,58.28
2019-05-13T06:27:34.908Z,58.31
2019-05-13T06:30:07.048Z,58.33
2019-05-13T06:32:37.558Z,58.35
2019-05-13T06:35:07.800Z,58.36
2019-05-13T06:37:38.424Z,58.39
2019-05-13T06:40:12.395Z,58.37
2019-05-13T06:42:42.697Z,58.39
2019-05-13T06:45:13.710Z,58.39
2019-05-13T06:47:44.559Z,58.40
2019-05-13T06:50:15.058Z,58.40
2019-05-13T06:52:45.334Z,58.39
2019-05-13T06:55:15.630Z,58.39
2019-05-13T06:57:46.215Z,58.39
2019-05-13T07:00:16.949Z,58.39
2019-05-13T07:02:47.140Z,58.39
2019-05-13T07:05:17.372Z,58.39
2019-05-13T07:07:47.932Z,58.42
2019-05-13T07:10:21.494Z,58.43
2019-05-13T07:12:52.356Z,58.44
2019-05-13T07:15:23.172Z,58.43
2019-05-13T07:17:53.468Z,58.45
2019-05-13T07:20:23.713Z,58.46
2019-05-13T07:22:53.920Z,58.50
2019-05-13T07:25:24.137Z,58.48
2019-05-13T07:27:54.369Z,58.51
2019-05-13T07:30:36.628Z,58.52
2019-05-13T07:33:06.891Z,58.54
2019-05-13T07:35:38.757Z,58.58
2019-05-13T07:38:11.667Z,58.60
2019-05-13T07:40:42.336Z,58.60
2019-05-13T07:43:12.651Z,58.59
2019-05-13T07:45:42.894Z,58.60
2019-05-13T07:48:21.201Z,58.61
2019-05-13T07:50:56.348Z,58.63
2019-05-13T07:53:19.216Z,58.62
2019-05-13T07:55:52.321Z,58.62
2019-05-13T07:58:22.997Z,58.62
2019-05-13T08:00:53.856Z,58.59
2019-05-13T08:03:24.588Z,58.54
2019-05-13T08:05:55.403Z,58.50
2019-05-13T08:08:25.760Z,58.46
2019-05-13T08:10:57.595Z,58.46
2019-05-13T08:13:28.487Z,58.42
2019-05-13T08:16:01.674Z,58.39
2019-05-13T08:18:31.850Z,58.40
2019-05-13T08:21:02.657Z,58.36
2019-05-13T08:23:33.353Z,58.39
2019-05-13T08:26:03.714Z,58.39
2019-05-13T08:28:34.346Z,58.36
2019-05-13T08:31:05.904Z,58.34
2019-05-13T08:33:36.761Z,58.34
2019-05-13T08:36:07.077Z,58.32
2019-05-13T08:38:37.317Z,58.30
2019-05-13T08:41:09.768Z,58.28
2019-05-13T08:43:41.920Z,58.28
2019-05-13T08:46:12.594Z,58.26
2019-05-13T08:48:44.295Z,58.28
2019-05-13T08:51:14.842Z,58.26
2019-05-13T08:53:45.508Z,58.28
2019-05-13T08:56:16.198Z,58.28
2019-05-13T08:58:47.269Z,58.29
2019-05-13T09:01:17.940Z,58.29
2019-05-13T09:03:48.683Z,58.28
2019-05-13T09:06:19.043Z,58.27
2019-05-13T09:08:53.299Z,58.25
2019-05-13T09:11:22.253Z,58.21
2019-05-13T09:13:52.879Z,58.15
2019-05-13T09:16:23.417Z,58.11
2019-05-13T09:18:54.057Z,58.09
2019-05-13T09:21:24.358Z,58.05
2019-05-13T09:23:54.942Z,57.98
2019-05-13T09:26:25.875Z,57.96
2019-05-13T09:28:56.541Z,57.93
2019-05-13T09:31:26.850Z,57.89
2019-05-13T09:33:58.434Z,57.87
2019-05-13T09:36:29.153Z,57.84
2019-05-13T09:39:02.125Z,57.83
2019-05-13T09:41:40.541Z,57.80
2019-05-13T09:44:05.646Z,57.77
2019-05-13T09:46:35.927Z,57.73
2019-05-13T09:49:16.249Z,57.71
2019-05-13T09:51:38.720Z,57.70
2019-05-13T09:54:11.493Z,57.67
2019-05-13T09:56:41.431Z,57.63
2019-05-13T09:59:12.387Z,57.60
2019-05-13T10:01:42.794Z,57.56
2019-05-13T10:04:13.009Z,57.52
2019-05-13T10:06:43.225Z,57.46
2019-05-13T10:09:13.711Z,57.42
2019-05-13T10:11:44.299Z,57.43
2019-05-13T10:14:16.151Z,57.40
2019-05-13T10:16:47.468Z,57.35
2019-05-13T10:19:18.073Z,57.32
2019-05-13T10:21:48.864Z,57.27
2019-05-13T10:24:19.180Z,57.19
2019-05-13T10:26:51.490Z,57.14
2019-05-13T10:29:22.599Z,57.04
2019-05-13T10:31:54.259Z,56.94
2019-05-13T10:34:25.302Z,56.82
2019-05-13T10:36:58.345Z,56.70
2019-05-13T10:39:28.567Z,56.59
2019-05-13T10:41:58.985Z,56.45
2019-05-13T10:44:29.519Z,56.32
2019-05-13T10:47:02.502Z,56.21
2019-05-13T10:49:33.304Z,56.08
2019-05-13T10:52:04.261Z,55.94
2019-05-13T10:54:34.716Z,55.84
2019-05-13T10:57:05.597Z,55.71
2019-05-13T10:59:35.880Z,55.62
2019-05-13T11:02:06.139Z,55.52
2019-05-13T11:04:36.745Z,55.40
2019-05-13T11:07:07.055Z,55.31
2019-05-13T11:09:37.803Z,55.24
2019-05-13T11:12:12.167Z,55.18
2019-05-13T11:14:42.374Z,55.12
2019-05-13T11:17:13.614Z,55.03
2019-05-13T11:19:45.286Z,54.99
2019-05-13T11:22:15.894Z,54.91
2019-05-13T11:24:46.602Z,54.84
2019-05-13T11:27:17.245Z,54.81
2019-05-13T11:29:48.211Z,54.75
2019-05-13T11:32:18.517Z,54.72
2019-05-13T11:34:48.809Z,54.69
2019-05-13T11:37:19.164Z,54.64
2019-05-13T11:39:51.665Z,54.59
2019-05-13T11:42:22.907Z,54.55
2019-05-13T11:44:53.846Z,54.48
2019-05-13T11:47:24.477Z,54.43
2019-05-13T11:49:55.136Z,54.39
2019-05-13T11:52:25.850Z,54.33
2019-05-13T11:54:56.167Z,54.28
2019-05-13T11:57:26.762Z,54.23
2019-05-13T11:59:57.051Z,54.18
2019-05-13T12:02:27.718Z,54.13
2019-05-13T12:04:57.998Z,54.10
2019-05-13T12:07:28.328Z,54.08
2019-05-13T12:09:58.541Z,54.04
2019-05-13T12:12:33.603Z,54.02
2019-05-13T12:15:26.320Z,53.98
2019-05-13T12:17:34.560Z,53.94
2019-05-13T12:20:05.443Z,53.91
2019-05-13T12:22:35.664Z,53.86
2019-05-13T12:25:07.264Z,53.84
2019-05-13T12:27:37.849Z,53.79
2019-05-13T12:30:08.714Z,53.81
2019-05-13T12:32:39.043Z,53.77
2019-05-13T12:35:13.351Z,53.75
2019-05-13T12:37:42.213Z,53.74
2019-05-13T12:40:13.371Z,53.68
2019-05-13T12:42:47.118Z,53.63
2019-05-13T12:45:16.495Z,53.57
2019-05-13T12:47:47.110Z,53.54
2019-05-13T12:50:23.307Z,53.49
2019-05-13T12:52:51.822Z,53.44
2019-05-13T12:55:22.504Z,53.37
2019-05-13T12:57:52.879Z,53.29
2019-05-13T13:00:23.915Z,53.23
2019-05-13T13:02:54.759Z,53.19
2019-05-13T13:05:32.932Z,53.12
2019-05-13T13:08:16.031Z,53.05
2019-05-13T13:10:34.488Z,53.01
2019-05-13T13:13:04.621Z,52.97
2019-05-13T13:15:41.117Z,52.93
2019-05-13T13:18:08.165Z,52.89
2019-05-13T13:20:42.216Z,52.83
2019-05-13T13:23:12.856Z,52.78
2019-05-13T13:25:48.562Z,52.70
2019-05-13T13:28:15.754Z,52.64
2019-05-13T13:30:46.164Z,52.56
2019-05-13T13:33:16.772Z,52.51
2019-05-13T13:35:55.019Z,52.43
2019-05-13T13:38:24.406Z,52.40
2019-05-13T13:40:53.878Z,52.33
2019-05-13T13:43:25.160Z,52.27
2019-05-13T13:46:08.538Z,52.19
2019-05-13T13:48:33.214Z,52.13
2019-05-13T13:51:05.220Z,52.09
2019-05-13T13:53:36.180Z,52.01
2019-05-13T13:56:06.574Z,51.96
2019-05-13T13:58:37.091Z,51.93
2019-05-13T14:01:13.789Z,51.91
2019-05-13T14:03:46.163Z,51.90
2019-05-13T14:07:04.337Z,51.88
2019-05-13T14:08:46.745Z,51.85
2019-05-13T14:11:17.414Z,51.83
2019-05-13T14:13:47.730Z,51.81
2019-05-13T14:16:26.022Z,51.81
2019-05-13T14:18:52.323Z,51.82
2019-05-13T14:21:22.893Z,51.82
2019-05-13T14:23:53.955Z,51.79
2019-05-13T14:26:24.949Z,51.78
2019-05-13T14:28:55.865Z,51.79
2019-05-13T14:31:26.504Z,51.76
2019-05-13T14:33:59.610Z,51.77
2019-05-13T14:36:30.428Z,51.77
2019-05-13T14:39:02.769Z,51.75
2019-05-13T14:41:34.549Z,51.73
2019-05-13T14:44:05.261Z,51.69
2019-05-13T14:46:47.020Z,51.65
2019-05-13T14:49:09.041Z,51.61
2019-05-13T14:51:41.511Z,51.57
2019-05-13T14:54:11.281Z,51.57
2019-05-13T14:56:42.120Z,51.54
2019-05-13T14:59:13.034Z,51.51
2019-05-13T15:01:44.748Z,51.49
2019-05-13T15:04:15.699Z,51.49
2019-05-13T15:06:47.453Z,51.47
2019-05-13T15:09:18.349Z,51.50
2019-05-13T15:11:52.767Z,51.51
2019-05-13T15:14:22.759Z,51.52
2019-05-13T15:17:02.697Z,51.53
2019-05-13T15:19:25.130Z,51.55
2019-05-13T15:21:55.524Z,51.58
2019-05-13T15:24:26.728Z,51.60
2019-05-13T15:26:57.441Z,51.64
2019-05-13T15:29:28.148Z,51.65
2019-05-13T15:31:58.800Z,51.66
2019-05-13T15:34:31.705Z,51.69
2019-05-13T15:37:02.178Z,51.69
2019-05-13T15:39:33.082Z,51.70
2019-05-13T15:42:03.599Z,51.71
2019-05-13T15:44:34.149Z,51.68
2019-05-13T15:47:22.488Z,51.72
2019-05-13T15:49:36.869Z,51.72
2019-05-13T15:52:07.180Z,51.75
2019-05-13T15:54:37.409Z,51.74
2019-05-13T15:57:08.729Z,51.76
2019-05-13T15:59:41.365Z,51.77
2019-05-13T16:02:11.775Z,51.78
2019-05-13T16:04:52.973Z,51.81
2019-05-13T16:07:14.863Z,51.81
2019-05-13T16:09:45.691Z,51.82
2019-05-13T16:12:16.351Z,51.83
2019-05-13T16:14:47.020Z,51.85
2019-05-13T16:17:17.670Z,51.87
2019-05-13T16:19:48.343Z,51.90
2019-05-13T16:22:19.290Z,51.91
2019-05-13T16:24:52.200Z,51.92
2019-05-13T16:27:22.412Z,51.94
2019-05-13T16:29:52.729Z,51.95
2019-05-13T16:32:23.283Z,51.94
2019-05-13T16:34:53.634Z,51.97
2019-05-13T16:37:23.805Z,51.98
2019-05-13T16:39:54.396Z,52.01
2019-05-13T16:42:25.328Z,52.05
2019-05-13T16:44:55.773Z,52.08
2019-05-13T16:47:26.158Z,52.09
2019-05-13T16:49:56.364Z,52.13
2019-05-13T16:52:27.022Z,52.15
2019-05-13T16:54:58.908Z,52.21
2019-05-13T16:57:31.531Z,52.23
2019-05-13T17:00:02.404Z,52.25
2019-05-13T17:02:33.600Z,52.29
2019-05-13T17:05:07.377Z,52.33
2019-05-13T17:07:38.145Z,52.35
2019-05-13T17:10:12.476Z,52.38
2019-05-13T17:12:42.937Z,52.43
2019-05-13T17:15:14.355Z,52.47
2019-05-13T17:17:45.012Z,52.51
2019-05-13T17:20:15.721Z,52.54
2019-05-13T17:22:45.956Z,52.58
2019-05-13T17:25:16.888Z,52.62
2019-05-13T17:27:47.576Z,52.66
2019-05-13T17:30:18.629Z,52.70
2019-05-13T17:32:51.456Z,52.72
2019-05-13T17:35:22.588Z,52.76
2019-05-13T17:37:54.892Z,52.81
2019-05-13T17:40:27.296Z,52.83
2019-05-13T17:42:57.957Z,52.86
2019-05-13T17:45:28.647Z,52.90
2019-05-13T17:48:01.080Z,52.94
2019-05-13T17:50:32.199Z,52.98
2019-05-13T17:53:02.518Z,53.00
2019-05-13T17:55:32.846Z,53.07
2019-05-13T17:58:03.077Z,53.08
2019-05-13T18:00:34.053Z,53.14
2019-05-13T18:03:04.428Z,53.19
2019-05-13T18:05:34.699Z,53.23
2019-05-13T18:08:05.070Z,53.28
2019-05-13T18:10:35.542Z,53.34
2019-05-13T18:13:05.861Z,53.38
2019-05-13T18:15:36.116Z,53.44
2019-05-13T18:18:06.337Z,53.49
2019-05-13T18:20:36.946Z,53.54
2019-05-13T18:23:07.888Z,53.61
2019-05-13T18:25:38.328Z,53.65
2019-05-13T18:28:08.568Z,53.70
2019-05-13T18:30:42.826Z,53.75
2019-05-13T18:33:13.362Z,53.79
2019-05-13T18:35:43.942Z,53.84
2019-05-13T18:38:14.602Z,53.90
2019-05-13T18:40:44.936Z,53.96
2019-05-13T18:43:15.234Z,54.00
2019-05-13T18:45:45.515Z,54.08
2019-05-13T18:48:17.002Z,54.11
2019-05-13T18:50:47.590Z,54.17
2019-05-13T18:53:18.357Z,54.22
2019-05-13T18:55:48.932Z,54.25
2019-05-13T18:58:19.161Z,54.30
2019-05-13T19:00:52.300Z,54.36
2019-05-13T19:03:23.267Z,54.42
2019-05-13T19:05:53.663Z,54.47
2019-05-13T19:08:23.946Z,54.53
2019-05-13T19:10:54.201Z,54.58
2019-05-13T19:13:24.774Z,54.64
2019-05-13T19:15:55.199Z,54.68
2019-05-13T19:18:26.990Z,54.73
2019-05-13T19:20:57.965Z,54.76
2019-05-13T19:23:28.262Z,54.80
2019-05-13T19:25:58.498Z,54.86
2019-05-13T19:28:31.525Z,54.89
2019-05-13T19:31:02.276Z,54.94
2019-05-13T19:33:34.689Z,54.98
2019-05-13T19:36:05.325Z,55.02
2019-05-13T19:38:36.046Z,55.08
2019-05-13T19:41:06.424Z,55.10
2019-05-13T19:43:36.783Z,55.15
2019-05-13T19:46:07.355Z,55.18
2019-05-13T19:48:38.243Z,55.25
2019-05-13T19:51:08.566Z,55.28
2019-05-13T19:53:41.036Z,55.33
2019-05-13T19:56:11.866Z,55.39
2019-05-13T19:58:43.263Z,55.43
2019-05-13T20:01:13.889Z,55.47
2019-05-13T20:03:44.769Z,55.55
2019-05-13T20:06:15.339Z,55.58
2019-05-13T20:08:45.803Z,55.64
2019-05-13T20:11:15.990Z,55.70
2019-05-13T20:13:46.321Z,55.76
2019-05-13T20:16:18.099Z,55.82
2019-05-13T20:18:48.490Z,55.86
2019-05-13T20:21:19.774Z,55.92
2019-05-13T20:23:51.918Z,55.97
2019-05-13T20:26:22.094Z,56.03
2019-05-13T20:28:52.433Z,56.08
2019-05-13T20:31:22.669Z,56.11
2019-05-13T20:33:52.920Z,56.17
2019-05-13T20:36:25.832Z,56.22
2019-05-13T20:38:56.394Z,56.25
2019-05-13T20:41:28.118Z,56.32
2019-05-13T20:44:01.328Z,56.37
2019-05-13T20:46:32.714Z,56.42
2019-05-13T20:49:04.543Z,56.46
2019-05-13T20:51:35.027Z,56.51
2019-05-13T20:54:06.925Z,56.57
2019-05-13T20:56:38.175Z,56.61
2019-05-13T20:59:09.724Z,56.65
2019-05-13T21:01:42.130Z,56.67
2019-05-13T21:04:12.744Z,56.72
2019-05-13T21:06:43.583Z,56.76
2019-05-13T21:09:17.308Z,56.81
2019-05-13T21:11:47.555Z,56.84
2019-05-13T21:14:21.399Z,56.87
2019-05-13T21:16:53.635Z,56.91
2019-05-13T21:19:39.407Z,56.95
2019-05-13T21:22:11.847Z,56.98
2019-05-13T21:24:44.024Z,57.02
2019-05-13T21:27:14.479Z,57.07
2019-05-13T21:29:45.120Z,57.10
2019-05-13T21:32:17.758Z,57.16
2019-05-13T21:34:48.576Z,57.20
2019-05-13T21:37:22.057Z,57.25
2019-05-13T21:39:53.105Z,57.31
2019-05-13T21:42:24.135Z,57.35
2019-05-13T21:44:55.035Z,57.40
2019-05-13T21:47:25.424Z,57.45
2019-05-13T21:49:57.687Z,57.50
2019-05-13T21:52:29.057Z,57.56
2019-05-13T21:55:01.728Z,57.61
2019-05-13T21:57:33.131Z,57.64
2019-05-13T22:00:12.077Z,57.69
2019-05-13T22:02:44.302Z,57.74
2019-05-13T22:05:15.798Z,57.79
2019-05-13T22:07:46.276Z,57.84
2019-05-13T22:10:16.917Z,57.84
2019-05-13T22:12:47.130Z,57.91
2019-05-13T22:15:25.601Z,57.95
2019-05-13T22:17:56.407Z,57.99
2019-05-13T22:20:27.146Z,58.04
2019-05-13T22:22:57.786Z,58.07
2019-05-13T22:25:28.446Z,58.12
2019-05-13T22:28:01.104Z,58.16
2019-05-13T22:30:33.316Z,58.19
2019-05-13T22:33:03.081Z,58.24
2019-05-13T22:35:33.700Z,58.25
2019-05-13T22:38:05.081Z,58.29
2019-05-13T22:40:35.855Z,58.31
2019-05-13T22:43:06.655Z,58.35
2019-05-13T22:45:37.350Z,58.42
2019-05-13T22:48:07.655Z,58.45
2019-05-13T22:50:38.271Z,58.49
2019-05-13T22:53:08.828Z,58.54
2019-05-13T22:55:41.620Z,58.58
2019-05-13T22:58:11.900Z,58.61
2019-05-13T23:00:42.592Z,58.66
2019-05-13T23:03:14.852Z,58.71
2019-05-13T23:05:45.539Z,58.77
2019-05-13T23:08:16.209Z,58.80
2019-05-13T23:10:46.505Z,58.83
2019-05-13T23:13:19.843Z,58.87
2019-05-13T23:15:53.270Z,58.91
2019-05-13T23:18:23.567Z,58.93
2019-05-13T23:20:53.785Z,58.98
2019-05-13T23:23:24.393Z,59.01
2019-05-13T23:25:56.856Z,59.06
2019-05-13T23:28:26.967Z,59.09
2019-05-13T23:30:57.267Z,59.13
2019-05-13T23:33:27.527Z,59.17
2019-05-13T23:35:57.756Z,59.22
2019-05-13T23:38:27.985Z,59.26
2019-05-13T23:40:58.208Z,59.29
2019-05-13T23:43:28.469Z,59.33
2019-05-13T23:46:01.020Z,59.37
2019-05-13T23:48:32.112Z,59.40
2019-05-13T23:51:03.192Z,59.45
2019-05-13T23:53:33.847Z,59.47
2019-05-13T23:56:04.205Z,59.52
2019-05-13T23:58:34.621Z,59.56
